Time;durP1;ratioP1;P1;durP2;ratioP2;P2;SDS_P1;SDS_P2;PMS_P1;PMS_P2;Temp;Humidity;BMP_temperature;BMP_pressure;BME280_temperature;BME280_humidity;BME280_pressure;Samples;Min_cycle;Max_cycle;Signal;HPM_P1;HPM_P2
2021/08/30 00:02:15;;;;;;;3.27;2.07;;;;;;;;;;5052637;28;20439;-82
2021/08/30 00:04:41;;;;;;;3.13;1.57;;;;;;;;;;5049633;28;20447;-81
2021/08/30 00:07:07;;;;;;;2.53;2.15;;;;;;;;;;5045548;28;20451;-82
2021/08/30 00:09:33;;;;;;;4.70;2.17;;;;;;;;;;5041715;28;20206;-81
2021/08/30 00:11:59;;;;;;;4.77;2.37;;;;;;;;;;5044627;28;20420;-82
2021/08/30 00:14:25;;;;;;;4.57;2.03;;;;;;;;;;5047235;28;20417;-82
2021/08/30 00:16:51;;;;;;;4.23;2.10;;;;;;;;;;5048622;28;20458;-82
2021/08/30 00:19:17;;;;;;;5.40;2.40;;;;;;;;;;5053586;28;20503;-81
2021/08/30 00:21:43;;;;;;;2.75;2.03;;;;;;;;;;5056177;28;20185;-82
2021/08/30 00:24:09;;;;;;;7.10;2.33;;;;;;;;;;5042777;28;20177;-81
2021/08/30 00:26:35;;;;;;;4.75;2.05;;;;;;;;;;5046440;28;20173;-82
2021/08/30 00:29:01;;;;;;;4.33;1.97;;;;;;;;;;5052735;28;20200;-81
2021/08/30 00:31:27;;;;;;;2.92;2.00;;;;;;;;;;5053065;28;20460;-81
2021/08/30 00:33:54;;;;;;;4.38;2.00;;;;;;;;;;5045069;28;20188;-81
2021/08/30 00:36:22;;;;;;;4.85;2.22;;;;;;;;;;5041409;28;20182;-81
2021/08/30 00:38:48;;;;;;;6.68;3.20;;;;;;;;;;5062195;28;20647;-82
2021/08/30 00:41:14;;;;;;;5.15;2.35;;;;;;;;;;5046728;28;20614;-82
2021/08/30 00:43:41;;;;;;;4.70;2.78;;;;;;;;;;5044089;28;20660;-82
2021/08/30 00:46:07;;;;;;;5.75;2.85;;;;;;;;;;5040796;28;20194;-82
2021/08/30 00:48:33;;;;;;;4.60;2.22;;;;;;;;;;5055885;28;20206;-81
2021/08/30 00:51:00;;;;;;;4.63;2.77;;;;;;;;;;5058856;28;20173;-81
2021/08/30 00:53:26;;;;;;;3.53;3.22;;;;;;;;;;5046279;28;20499;-81
2021/08/30 00:55:52;;;;;;;5.28;2.80;;;;;;;;;;5045614;28;20181;-81
2021/08/30 00:58:18;;;;;;;6.50;4.00;;;;;;;;;;5044411;28;20190;-82
2021/08/30 01:00:44;;;;;;;4.97;3.83;;;;;;;;;;5044176;28;20182;-82
2021/08/30 01:03:10;;;;;;;4.85;3.80;;;;;;;;;;5058473;28;20183;-82
2021/08/30 01:05:38;;;;;;;9.00;3.85;;;;;;;;;;5045042;28;20216;-82
2021/08/30 01:08:23;;;;;;;4.50;4.10;;;;;;;;;;5045428;28;20210;-83
2021/08/30 01:10:52;;;;;;;6.07;3.88;;;;;;;;;;5048031;28;20618;-82
2021/08/30 01:13:27;;;;;;;7.53;4.60;;;;;;;;;;5048349;28;20189;-82
2021/08/30 01:15:53;;;;;;;9.55;4.40;;;;;;;;;;5040528;28;20398;-82
2021/08/30 01:18:24;;;;;;;10.10;4.43;;;;;;;;;;5055629;28;20207;-82
2021/08/30 01:21:08;;;;;;;12.15;5.25;;;;;;;;;;5047820;28;20178;-83
2021/08/30 01:23:37;;;;;;;4.65;4.00;;;;;;;;;;5059619;28;20254;-82
2021/08/30 01:26:04;;;;;;;6.78;4.82;;;;;;;;;;5047535;28;20203;-82
2021/08/30 01:28:50;;;;;;;5.85;4.00;;;;;;;;;;5056619;28;20563;-82
2021/08/30 01:31:28;;;;;;;4.85;4.22;;;;;;;;;;5052411;28;20227;-82
2021/08/30 01:33:53;;;;;;;8.40;4.15;;;;;;;;;;5044205;28;20196;-81
2021/08/30 01:36:20;;;;;;;7.33;5.23;;;;;;;;;;5039355;28;20522;-82
2021/08/30 01:38:47;;;;;;;8.40;4.50;;;;;;;;;;5051150;28;20423;-82
2021/08/30 01:41:15;;;;;;;5.88;4.60;;;;;;;;;;5047045;28;20197;-81
2021/08/30 01:43:44;;;;;;;6.65;4.50;;;;;;;;;;5049267;28;20201;-82
2021/08/30 01:46:10;;;;;;;10.82;4.80;;;;;;;;;;5048724;28;20252;-82
2021/08/30 01:48:36;;;;;;;6.93;4.18;;;;;;;;;;5045447;28;20201;-82
2021/08/30 01:51:03;;;;;;;7.28;4.85;;;;;;;;;;5047898;28;20211;-82
2021/08/30 01:53:29;;;;;;;7.68;4.50;;;;;;;;;;5050067;28;20174;-82
2021/08/30 01:55:59;;;;;;;6.07;4.38;;;;;;;;;;5048354;28;20644;-82
2021/08/30 02:00:51;;;;;;;4.57;4.18;;;;;;;;;;5042886;28;20285;-82
2021/08/30 02:03:22;;;;;;;5.88;4.32;;;;;;;;;;5058169;28;20182;-82
2021/08/30 02:05:52;;;;;;;6.22;4.38;;;;;;;;;;5049623;28;20174;-82
2021/08/30 02:08:22;;;;;;;5.43;4.20;;;;;;;;;;5048447;28;20217;-82
2021/08/30 02:10:48;;;;;;;9.75;4.68;;;;;;;;;;5049301;28;20184;-82
2021/08/30 02:13:15;;;;;;;6.35;5.25;;;;;;;;;;5044250;28;20188;-82
2021/08/30 02:15:42;;;;;;;4.97;4.20;;;;;;;;;;5058495;28;20184;-82
2021/08/30 02:18:14;;;;;;;6.60;4.28;;;;;;;;;;5044412;28;20177;-82
2021/08/30 02:20:46;;;;;;;7.65;5.22;;;;;;;;;;5048008;28;20217;-82
2021/08/30 02:23:13;;;;;;;8.65;4.25;;;;;;;;;;5047641;28;20200;-81
2021/08/30 02:25:39;;;;;;;7.80;4.65;;;;;;;;;;5047045;28;20188;-82
2021/08/30 02:28:05;;;;;;;10.02;5.10;;;;;;;;;;5047440;28;20660;-82
2021/08/30 02:30:41;;;;;;;10.20;4.85;;;;;;;;;;5043445;28;20194;-82
2021/08/30 02:33:11;;;;;;;6.68;5.03;;;;;;;;;;5045604;28;20173;-82
2021/08/30 02:35:39;;;;;;;8.82;4.40;;;;;;;;;;5048088;28;20174;-82
2021/08/30 02:38:05;;;;;;;7.40;5.40;;;;;;;;;;5055497;28;20192;-82
2021/08/30 02:40:32;;;;;;;8.75;6.35;;;;;;;;;;5054677;28;20188;-82
2021/08/30 02:43:00;;;;;;;6.55;4.60;;;;;;;;;;5057807;28;20189;-82
2021/08/30 02:45:26;;;;;;;7.63;4.35;;;;;;;;;;5043275;28;20292;-82
2021/08/30 02:47:53;;;;;;;9.13;4.53;;;;;;;;;;5071792;28;20177;-82
2021/08/30 02:50:20;;;;;;;11.02;4.82;;;;;;;;;;5047792;28;20178;-82
2021/08/30 02:52:47;;;;;;;7.30;4.63;;;;;;;;;;5038466;28;20184;-82
2021/08/30 02:55:13;;;;;;;8.60;5.70;;;;;;;;;;5052536;28;20372;-83
2021/08/30 02:57:39;;;;;;;10.77;5.00;;;;;;;;;;5043479;28;20183;-82
2021/08/30 03:00:06;;;;;;;11.50;5.25;;;;;;;;;;5044780;28;20170;-82
2021/08/30 03:02:32;;;;;;;6.00;4.60;;;;;;;;;;5049300;28;20181;-81
2021/08/30 03:05:00;;;;;;;7.50;4.15;;;;;;;;;;5045622;28;20189;-81
2021/08/30 03:07:28;;;;;;;7.40;4.82;;;;;;;;;;5047157;28;20190;-82
2021/08/30 03:09:54;;;;;;;6.07;4.13;;;;;;;;;;5046892;28;20205;-82
2021/08/30 03:12:21;;;;;;;8.43;4.55;;;;;;;;;;5041526;28;20194;-82
2021/08/30 03:14:48;;;;;;;14.52;5.35;;;;;;;;;;5049052;28;20166;-82
2021/08/30 03:17:15;;;;;;;7.75;4.57;;;;;;;;;;5045324;28;20284;-82
2021/08/30 03:19:43;;;;;;;9.38;4.60;;;;;;;;;;5045177;28;20307;-82
2021/08/30 03:22:11;;;;;;;11.82;5.05;;;;;;;;;;5045761;28;20189;-82
2021/08/30 03:24:41;;;;;;;6.72;4.85;;;;;;;;;;5042890;28;20206;-82
2021/08/30 03:27:07;;;;;;;5.32;4.15;;;;;;;;;;5044162;28;20178;-82
2021/08/30 03:29:34;;;;;;;5.45;4.65;;;;;;;;;;5047495;28;20205;-80
2021/08/30 03:32:00;;;;;;;6.97;3.95;;;;;;;;;;5047063;28;20208;-81
2021/08/30 03:34:27;;;;;;;5.10;3.83;;;;;;;;;;5045048;28;20236;-82
2021/08/30 03:36:53;;;;;;;9.07;3.78;;;;;;;;;;5046022;28;20227;-81
2021/08/30 03:39:19;;;;;;;4.70;3.65;;;;;;;;;;5042613;28;20190;-82
2021/08/30 03:41:46;;;;;;;7.82;4.72;;;;;;;;;;5063283;28;20249;-82
2021/08/30 03:44:12;;;;;;;4.88;4.40;;;;;;;;;;5046964;28;20186;-82
2021/08/30 03:46:39;;;;;;;9.70;4.28;;;;;;;;;;5046870;28;20209;-82
2021/08/30 03:49:06;;;;;;;4.40;3.88;;;;;;;;;;5045654;28;20274;-81
2021/08/30 03:51:32;;;;;;;6.13;3.90;;;;;;;;;;5042211;28;20194;-82
2021/08/30 03:53:58;;;;;;;4.38;3.97;;;;;;;;;;5062166;28;20192;-82
2021/08/30 03:56:26;;;;;;;6.28;4.57;;;;;;;;;;5057904;28;20631;-81
2021/08/30 03:58:53;;;;;;;5.15;3.53;;;;;;;;;;5055489;28;20276;-82
2021/08/30 04:01:24;;;;;;;7.93;3.75;;;;;;;;;;5054429;28;20248;-82
2021/08/30 04:03:52;;;;;;;9.55;4.15;;;;;;;;;;5043936;28;20189;-82
2021/08/30 04:06:18;;;;;;;3.65;3.35;;;;;;;;;;5041868;28;20186;-82
2021/08/30 04:08:44;;;;;;;6.13;3.97;;;;;;;;;;5048288;28;20225;-82
2021/08/30 04:11:11;;;;;;;5.10;4.22;;;;;;;;;;5046504;28;20181;-82
2021/08/30 04:13:38;;;;;;;5.60;3.80;;;;;;;;;;5045553;28;20216;-82
2021/08/30 04:16:04;;;;;;;6.85;4.22;;;;;;;;;;5046867;28;20184;-82
2021/08/30 04:18:30;;;;;;;5.43;4.07;;;;;;;;;;5039934;28;20716;-82
2021/08/30 04:20:57;;;;;;;4.32;3.92;;;;;;;;;;5047176;28;20261;-82
2021/08/30 04:23:23;;;;;;;6.00;4.05;;;;;;;;;;5057963;28;20190;-82
2021/08/30 04:25:49;;;;;;;5.97;4.25;;;;;;;;;;5041522;28;20474;-82
2021/08/30 04:28:15;;;;;;;5.50;4.23;;;;;;;;;;5043130;28;20205;-82
2021/08/30 04:30:41;;;;;;;5.80;4.60;;;;;;;;;;5056674;28;20609;-81
2021/08/30 04:33:10;;;;;;;3.60;3.30;;;;;;;;;;5043357;28;20213;-82
2021/08/30 04:35:36;;;;;;;6.13;4.53;;;;;;;;;;5044788;28;20479;-81
2021/08/30 04:38:02;;;;;;;4.60;4.05;;;;;;;;;;5045784;28;20186;-82
2021/08/30 04:40:28;;;;;;;6.65;3.55;;;;;;;;;;5044350;28;20216;-82
2021/08/30 04:42:54;;;;;;;4.72;4.03;;;;;;;;;;5043437;28;20196;-82
2021/08/30 04:45:20;;;;;;;4.30;3.90;;;;;;;;;;5039733;28;20204;-82
2021/08/30 04:47:46;;;;;;;6.47;4.05;;;;;;;;;;5047905;28;20165;-82
2021/08/30 04:50:12;;;;;;;5.18;4.65;;;;;;;;;;5044546;28;20206;-82
2021/08/30 04:52:38;;;;;;;5.03;3.92;;;;;;;;;;5043376;28;20182;-82
2021/08/30 04:55:04;;;;;;;6.28;5.03;;;;;;;;;;5045778;28;20181;-82
2021/08/30 04:57:30;;;;;;;4.78;4.38;;;;;;;;;;5040988;28;20193;-82
2021/08/30 04:59:56;;;;;;;6.20;4.30;;;;;;;;;;5046050;28;20173;-82
2021/08/30 05:02:22;;;;;;;6.37;4.33;;;;;;;;;;5046204;28;20579;-81
2021/08/30 05:04:48;;;;;;;6.20;5.17;;;;;;;;;;5045866;28;20504;-82
2021/08/30 05:07:14;;;;;;;5.40;4.90;;;;;;;;;;5045835;28;20432;-82
2021/08/30 05:09:40;;;;;;;5.60;4.15;;;;;;;;;;5041114;28;20461;-81
2021/08/30 05:12:06;;;;;;;5.20;4.60;;;;;;;;;;5044821;28;20223;-81
2021/08/30 05:14:34;;;;;;;7.00;4.13;;;;;;;;;;5049959;28;20177;-82
2021/08/30 05:17:01;;;;;;;5.28;4.05;;;;;;;;;;5053828;28;20169;-82
2021/08/30 05:19:27;;;;;;;6.15;5.05;;;;;;;;;;5060129;28;20216;-82
2021/08/30 05:21:53;;;;;;;8.27;5.72;;;;;;;;;;5059481;28;20455;-82
2021/08/30 05:24:19;;;;;;;5.50;4.90;;;;;;;;;;5043816;28;20244;-81
2021/08/30 05:26:45;;;;;;;8.10;5.43;;;;;;;;;;5050464;28;20251;-82
2021/08/30 05:29:11;;;;;;;7.40;6.07;;;;;;;;;;5048013;28;20660;-82
2021/08/30 05:31:37;;;;;;;7.30;5.77;;;;;;;;;;5048125;28;20435;-82
2021/08/30 05:34:03;;;;;;;7.25;5.47;;;;;;;;;;5049584;28;20435;-82
2021/08/30 05:36:29;;;;;;;5.97;5.07;;;;;;;;;;5058175;28;20193;-82
2021/08/30 05:38:56;;;;;;;10.93;7.32;;;;;;;;;;5049648;28;20552;-82
2021/08/30 05:41:22;;;;;;;7.40;5.93;;;;;;;;;;5061917;28;20178;-83
2021/08/30 05:43:48;;;;;;;7.97;7.18;;;;;;;;;;5044196;28;20224;-82
2021/08/30 05:46:16;;;;;;;9.38;6.85;;;;;;;;;;5048531;28;20193;-82
2021/08/30 05:48:46;;;;;;;7.60;6.70;;;;;;;;;;5043391;28;20225;-82
2021/08/30 05:51:12;;;;;;;9.82;7.20;;;;;;;;;;5059872;28;20187;-82
2021/08/30 05:53:38;;;;;;;8.48;6.80;;;;;;;;;;5048616;28;20197;-82
2021/08/30 05:56:04;;;;;;;9.50;7.40;;;;;;;;;;5057163;28;20211;-82
2021/08/30 05:58:30;;;;;;;8.18;7.38;;;;;;;;;;5053864;28;20673;-82
2021/08/30 06:00:56;;;;;;;10.77;7.30;;;;;;;;;;5049184;28;20191;-81
2021/08/30 06:03:22;;;;;;;12.15;9.02;;;;;;;;;;5043643;28;20448;-82
2021/08/30 06:05:49;;;;;;;14.70;9.00;;;;;;;;;;5049426;28;20604;-82
2021/08/30 06:08:15;;;;;;;10.45;8.35;;;;;;;;;;5046775;28;20228;-81
2021/08/30 06:10:41;;;;;;;9.07;7.95;;;;;;;;;;5048038;28;20308;-82
2021/08/30 06:13:06;;;;;;;12.37;8.90;;;;;;;;;;5048959;28;20181;-81
2021/08/30 06:15:32;;;;;;;10.47;9.40;;;;;;;;;;5062566;28;20432;-82
2021/08/30 06:17:58;;;;;;;13.77;10.30;;;;;;;;;;5049093;28;20416;-82
2021/08/30 06:20:24;;;;;;;11.30;9.07;;;;;;;;;;5055560;28;20217;-81
2021/08/30 06:22:51;;;;;;;12.35;10.60;;;;;;;;;;5051012;28;20425;-82
2021/08/30 06:25:17;;;;;;;13.32;10.55;;;;;;;;;;5046645;28;20215;-82
2021/08/30 06:27:43;;;;;;;11.27;10.15;;;;;;;;;;5044610;28;20185;-82
2021/08/30 06:30:09;;;;;;;14.10;10.33;;;;;;;;;;5045401;28;20269;-82
2021/08/30 06:32:35;;;;;;;12.40;9.38;;;;;;;;;;5049275;28;20412;-82
2021/08/30 06:35:01;;;;;;;16.15;10.00;;;;;;;;;;5047399;28;20186;-82
2021/08/30 06:37:27;;;;;;;11.57;10.38;;;;;;;;;;5046143;28;20188;-82
2021/08/30 06:39:53;;;;;;;13.43;10.07;;;;;;;;;;5043441;28;20186;-82
2021/08/30 06:42:19;;;;;;;10.80;9.67;;;;;;;;;;5058178;28;20433;-82
2021/08/30 06:44:45;;;;;;;13.30;10.45;;;;;;;;;;5048747;28;20431;-82
2021/08/30 06:47:11;;;;;;;15.48;11.02;;;;;;;;;;5057821;28;20189;-82
2021/08/30 06:49:37;;;;;;;13.43;10.45;;;;;;;;;;5054081;28;20206;-82
2021/08/30 06:52:03;;;;;;;14.48;10.73;;;;;;;;;;5047298;28;20249;-82
2021/08/30 06:54:29;;;;;;;11.88;9.98;;;;;;;;;;5042859;28;20210;-83
2021/08/30 06:56:55;;;;;;;11.93;10.02;;;;;;;;;;5048495;28;20173;-82
2021/08/30 06:59:21;;;;;;;13.50;9.60;;;;;;;;;;5058886;28;20667;-83
2021/08/30 07:01:47;;;;;;;11.75;9.23;;;;;;;;;;5053553;28;20184;-82
2021/08/30 07:04:13;;;;;;;12.35;9.65;;;;;;;;;;5054300;28;20197;-82
2021/08/30 07:06:40;;;;;;;13.63;9.52;;;;;;;;;;5054718;28;20185;-82
2021/08/30 07:09:06;;;;;;;12.07;9.95;;;;;;;;;;5058286;28;20223;-82
2021/08/30 07:11:32;;;;;;;11.83;10.23;;;;;;;;;;5048210;28;20170;-83
2021/08/30 07:13:58;;;;;;;11.93;9.27;;;;;;;;;;5047095;28;20516;-82
2021/08/30 07:16:24;;;;;;;12.00;10.20;;;;;;;;;;5047883;28;20199;-82
2021/08/30 07:18:50;;;;;;;11.55;10.43;;;;;;;;;;5044523;28;20224;-82
2021/08/30 07:21:16;;;;;;;11.52;10.35;;;;;;;;;;5059265;28;20197;-82
2021/08/30 07:23:42;;;;;;;14.27;11.13;;;;;;;;;;5048123;28;20185;-82
2021/08/30 07:26:08;;;;;;;12.38;10.50;;;;;;;;;;5049473;28;20485;-82
2021/08/30 07:28:37;;;;;;;10.77;9.67;;;;;;;;;;5053530;28;20202;-82
2021/08/30 07:31:03;;;;;;;11.90;10.25;;;;;;;;;;5046858;28;20446;-82
2021/08/30 07:33:29;;;;;;;12.80;10.97;;;;;;;;;;5040039;28;20186;-82
2021/08/30 07:35:55;;;;;;;11.90;9.83;;;;;;;;;;5059280;28;20416;-82
2021/08/30 07:38:21;;;;;;;14.45;10.45;;;;;;;;;;5051187;28;20416;-82
2021/08/30 07:40:47;;;;;;;11.77;10.38;;;;;;;;;;5045522;28;20245;-83
2021/08/30 07:43:13;;;;;;;12.03;10.50;;;;;;;;;;5046352;28;20192;-83
2021/08/30 07:45:39;;;;;;;11.82;9.20;;;;;;;;;;5041319;28;20441;-82
2021/08/30 07:48:05;;;;;;;14.02;9.77;;;;;;;;;;5058394;28;20173;-82
2021/08/30 07:50:31;;;;;;;14.82;10.63;;;;;;;;;;5046434;28;20174;-82
2021/08/30 07:52:57;;;;;;;14.48;9.57;;;;;;;;;;5046500;28;20178;-82
2021/08/30 07:55:23;;;;;;;12.18;8.88;;;;;;;;;;5046612;28;20343;-84
2021/08/30 07:57:49;;;;;;;11.18;10.05;;;;;;;;;;5046136;28;20185;-82
2021/08/30 08:00:16;;;;;;;11.32;10.27;;;;;;;;;;5042887;28;20260;-83
2021/08/30 08:02:42;;;;;;;11.25;9.38;;;;;;;;;;5047456;28;20261;-83
2021/08/30 08:05:08;;;;;;;9.95;8.95;;;;;;;;;;5049661;28;20213;-82
2021/08/30 08:07:34;;;;;;;10.10;8.63;;;;;;;;;;5052994;28;20197;-83
2021/08/30 08:10:06;;;;;;;10.07;9.13;;;;;;;;;;5041616;28;20280;-82
2021/08/30 08:12:32;;;;;;;11.35;9.20;;;;;;;;;;5056985;28;20645;-81
2021/08/30 08:14:58;;;;;;;10.00;9.00;;;;;;;;;;5046616;28;20206;-81
2021/08/30 08:17:24;;;;;;;9.53;8.53;;;;;;;;;;5047434;28;20177;-82
2021/08/30 08:19:50;;;;;;;9.77;8.10;;;;;;;;;;5047829;28;20471;-83
2021/08/30 08:22:16;;;;;;;10.47;8.03;;;;;;;;;;5055053;28;20442;-82
2021/08/30 08:24:42;;;;;;;10.65;9.02;;;;;;;;;;5042059;28;20445;-82
2021/08/30 08:27:08;;;;;;;11.50;9.80;;;;;;;;;;5059652;28;20209;-82
2021/08/30 08:29:34;;;;;;;10.30;9.20;;;;;;;;;;5047045;28;20748;-83
2021/08/30 08:32:00;;;;;;;10.43;8.10;;;;;;;;;;5046012;28;20444;-82
2021/08/30 08:34:26;;;;;;;8.65;7.85;;;;;;;;;;5045306;28;20445;-82
2021/08/30 08:36:55;;;;;;;7.23;6.53;;;;;;;;;;5043284;28;20227;-82
2021/08/30 08:39:21;;;;;;;9.18;8.20;;;;;;;;;;5039499;28;20466;-82
2021/08/30 08:41:47;;;;;;;9.53;8.53;;;;;;;;;;5046911;28;20216;-82
2021/08/30 08:44:13;;;;;;;9.10;8.20;;;;;;;;;;5055648;28;20808;-82
2021/08/30 08:46:39;;;;;;;11.55;9.27;;;;;;;;;;5051489;28;20436;-82
2021/08/30 08:49:06;;;;;;;7.38;6.50;;;;;;;;;;5046616;28;20213;-82
2021/08/30 08:51:33;;;;;;;8.60;7.70;;;;;;;;;;5054864;28;20181;-81
2021/08/30 08:53:59;;;;;;;8.63;7.03;;;;;;;;;;5045414;28;20177;-81
2021/08/30 08:56:26;;;;;;;8.55;7.75;;;;;;;;;;5046595;28;20634;-82
2021/08/30 08:58:53;;;;;;;7.20;6.45;;;;;;;;;;5045715;28;20266;-83
2021/08/30 09:01:23;;;;;;;7.90;7.15;;;;;;;;;;5045581;28;20188;-82
2021/08/30 09:03:51;;;;;;;9.27;7.45;;;;;;;;;;5043992;28;20193;-83
2021/08/30 09:06:26;;;;;;;7.13;6.40;;;;;;;;;;5041873;28;20194;-82
2021/08/30 09:08:54;;;;;;;9.27;7.10;;;;;;;;;;5054299;28;20199;-82
2021/08/30 09:11:22;;;;;;;8.45;7.22;;;;;;;;;;5049754;28;20253;-82
2021/08/30 09:13:49;;;;;;;10.20;7.80;;;;;;;;;;5052303;28;20179;-82
2021/08/30 09:16:20;;;;;;;8.10;6.53;;;;;;;;;;5054704;28;20189;-82
2021/08/30 09:18:46;;;;;;;8.80;6.70;;;;;;;;;;5042943;28;20218;-83
2021/08/30 09:21:13;;;;;;;6.90;6.20;;;;;;;;;;5041330;28;20190;-82
2021/08/30 09:23:40;;;;;;;9.45;7.95;;;;;;;;;;5046199;28;20178;-83
2021/08/30 09:26:06;;;;;;;9.50;6.15;;;;;;;;;;5046508;28;20190;-82
2021/08/30 09:28:35;;;;;;;5.95;5.40;;;;;;;;;;5050095;28;20224;-84
2021/08/30 09:31:02;;;;;;;7.15;6.32;;;;;;;;;;5056374;28;20191;-82
2021/08/30 09:33:28;;;;;;;7.60;6.82;;;;;;;;;;5055763;28;20256;-82
2021/08/30 09:36:00;;;;;;;6.85;6.10;;;;;;;;;;5046521;28;20194;-83
2021/08/30 09:38:28;;;;;;;7.05;6.05;;;;;;;;;;5057071;28;20186;-82
2021/08/30 09:41:03;;;;;;;7.93;5.35;;;;;;;;;;5050431;28;20186;-82
2021/08/30 09:43:29;;;;;;;7.85;6.15;;;;;;;;;;5051353;28;20210;-82
2021/08/30 09:45:59;;;;;;;7.93;6.10;;;;;;;;;;5056207;28;20736;-83
2021/08/30 09:48:28;;;;;;;8.65;6.97;;;;;;;;;;5039594;28;20476;-82
2021/08/30 09:50:58;;;;;;;7.75;5.55;;;;;;;;;;5052916;28;20179;-84
2021/08/30 09:53:24;;;;;;;6.93;6.32;;;;;;;;;;5046089;28;20192;-84
2021/08/30 09:55:50;;;;;;;7.03;5.83;;;;;;;;;;5045079;28;20184;-83
2021/08/30 09:58:17;;;;;;;6.97;6.13;;;;;;;;;;5046424;28;20437;-82
2021/08/30 10:00:45;;;;;;;5.85;4.75;;;;;;;;;;5045930;28;20588;-82
2021/08/30 10:03:11;;;;;;;6.43;5.40;;;;;;;;;;5062722;28;20206;-83
2021/08/30 10:05:37;;;;;;;5.30;4.80;;;;;;;;;;5060518;28;20216;-82
2021/08/30 10:08:03;;;;;;;6.43;5.32;;;;;;;;;;5046291;28;20632;-84
2021/08/30 10:10:31;;;;;;;5.93;5.30;;;;;;;;;;5051618;28;20183;-81
2021/08/30 10:12:57;;;;;;;5.70;5.10;;;;;;;;;;5059748;28;20187;-82
2021/08/30 10:15:26;;;;;;;7.90;5.95;;;;;;;;;;5043606;28;20199;-83
2021/08/30 10:17:53;;;;;;;6.63;5.57;;;;;;;;;;5060636;28;20243;-82
2021/08/30 10:20:23;;;;;;;6.30;5.72;;;;;;;;;;5048077;28;20247;-81
2021/08/30 10:23:00;;;;;;;5.70;5.20;;;;;;;;;;5049706;28;20205;-82
2021/08/30 10:25:27;;;;;;;7.07;5.60;;;;;;;;;;5048698;28;20541;-82
2021/08/30 10:28:01;;;;;;;5.78;5.28;;;;;;;;;;5043954;28;20197;-82
2021/08/30 10:30:28;;;;;;;6.88;5.53;;;;;;;;;;5026521;28;20183;-82
2021/08/30 10:32:55;;;;;;;5.53;5.03;;;;;;;;;;5056369;28;20173;-82
2021/08/30 10:35:23;;;;;;;6.53;5.82;;;;;;;;;;5052298;28;20185;-82
2021/08/30 10:38:04;;;;;;;6.20;5.60;;;;;;;;;;5052609;28;20203;-82
2021/08/30 10:40:32;;;;;;;7.77;6.83;;;;;;;;;;5047468;28;20402;-83
2021/08/30 10:43:01;;;;;;;6.87;6.17;;;;;;;;;;5057500;28;20431;-81
2021/08/30 10:45:31;;;;;;;6.40;5.80;;;;;;;;;;5042576;28;20408;-82
2021/08/30 10:48:00;;;;;;;5.97;5.23;;;;;;;;;;5060880;28;20394;-82
2021/08/30 10:50:26;;;;;;;7.87;5.97;;;;;;;;;;5048381;28;20708;-81
2021/08/30 10:53:02;;;;;;;7.70;5.00;;;;;;;;;;5047526;28;20402;-83
2021/08/30 10:55:35;;;;;;;8.07;5.77;;;;;;;;;;5046317;28;20890;-81
2021/08/30 10:58:09;;;;;;;7.88;5.50;;;;;;;;;;5048274;28;20438;-82
2021/08/30 11:00:35;;;;;;;5.77;5.20;;;;;;;;;;5042314;28;20189;-83
2021/08/30 11:03:01;;;;;;;6.45;5.85;;;;;;;;;;5045900;28;20413;-82
2021/08/30 11:05:28;;;;;;;7.40;5.63;;;;;;;;;;5047998;28;20546;-81
2021/08/30 11:07:55;;;;;;;6.00;5.50;;;;;;;;;;5047747;28;20963;-83
2021/08/30 11:10:25;;;;;;;9.03;6.93;;;;;;;;;;5045518;28;20207;-82
2021/08/30 11:12:51;;;;;;;5.93;5.33;;;;;;;;;;5056765;28;20793;-83
2021/08/30 11:15:17;;;;;;;6.60;5.90;;;;;;;;;;5042771;28;20456;-81
2021/08/30 11:17:43;;;;;;;7.57;5.80;;;;;;;;;;5058093;28;20183;-81
2021/08/30 11:20:10;;;;;;;6.60;5.95;;;;;;;;;;5048912;28;20496;-83
2021/08/30 11:22:36;;;;;;;6.63;5.50;;;;;;;;;;5045172;28;20239;-82
2021/08/30 11:25:04;;;;;;;7.23;6.53;;;;;;;;;;5047463;28;20418;-83
2021/08/30 11:27:32;;;;;;;9.23;6.50;;;;;;;;;;5041290;28;20555;-82
2021/08/30 11:30:00;;;;;;;7.53;5.53;;;;;;;;;;5046949;28;20894;-82
2021/08/30 11:32:27;;;;;;;6.77;5.60;;;;;;;;;;5074158;28;20690;-83
2021/08/30 11:34:54;;;;;;;7.10;6.43;;;;;;;;;;5049405;28;20419;-82
2021/08/30 11:37:23;;;;;;;8.03;6.20;;;;;;;;;;5045841;28;20511;-82
2021/08/30 11:39:50;;;;;;;6.27;5.10;;;;;;;;;;5045556;28;20444;-82
2021/08/30 11:42:20;;;;;;;6.63;5.80;;;;;;;;;;5043384;28;20390;-82
2021/08/30 11:44:47;;;;;;;5.93;5.33;;;;;;;;;;5048282;28;20391;-82
2021/08/30 11:47:15;;;;;;;5.80;5.30;;;;;;;;;;5045263;28;20437;-82
2021/08/30 11:49:46;;;;;;;9.73;5.83;;;;;;;;;;5045121;28;20495;-82
2021/08/30 11:52:13;;;;;;;6.23;5.63;;;;;;;;;;5043066;28;20411;-82
2021/08/30 11:54:40;;;;;;;6.20;5.60;;;;;;;;;;5056344;28;20440;-83
2021/08/30 11:57:13;;;;;;;6.07;5.57;;;;;;;;;;5044042;28;20379;-82
2021/08/30 11:59:48;;;;;;;5.73;5.20;;;;;;;;;;5056355;28;20416;-81
2021/08/30 12:02:15;;;;;;;5.73;5.13;;;;;;;;;;5047213;28;20467;-83
2021/08/30 12:04:41;;;;;;;6.30;5.70;;;;;;;;;;5046011;28;20454;-83
2021/08/30 12:07:11;;;;;;;5.73;5.23;;;;;;;;;;5044052;28;20820;-82
2021/08/30 12:09:58;;;;;;;7.10;5.83;;;;;;;;;;5043440;28;20445;-82
2021/08/30 12:12:29;;;;;;;6.20;5.60;;;;;;;;;;5039439;28;20426;-82
2021/08/30 12:14:59;;;;;;;5.37;4.80;;;;;;;;;;5038446;28;20905;-82
2021/08/30 12:17:25;;;;;;;8.77;6.07;;;;;;;;;;5045906;28;20892;-82
2021/08/30 12:19:55;;;;;;;6.20;5.50;;;;;;;;;;5045329;28;20889;-82
2021/08/30 12:22:30;;;;;;;6.40;5.80;;;;;;;;;;5043980;28;20413;-82
2021/08/30 12:25:19;;;;;;;8.70;6.23;;;;;;;;;;5046102;28;20428;-82
2021/08/30 12:27:46;;;;;;;9.83;5.73;;;;;;;;;;5039172;28;20403;-83
2021/08/30 12:30:15;;;;;;;6.57;5.50;;;;;;;;;;5058377;28;20462;-83
2021/08/30 12:32:48;;;;;;;5.47;4.97;;;;;;;;;;5047120;28;20759;-82
2021/08/30 12:35:20;;;;;;;6.10;5.53;;;;;;;;;;5045878;28;20539;-82
2021/08/30 12:37:46;;;;;;;5.80;5.30;;;;;;;;;;5047490;28;20208;-82
2021/08/30 12:40:12;;;;;;;6.67;5.57;;;;;;;;;;5051862;28;20411;-82
2021/08/30 12:42:38;;;;;;;5.93;5.33;;;;;;;;;;5056851;28;20473;-82
2021/08/30 12:45:04;;;;;;;6.63;5.87;;;;;;;;;;5044250;28;20495;-82
2021/08/30 12:47:30;;;;;;;6.93;5.77;;;;;;;;;;5055428;28;20415;-83
2021/08/30 12:49:56;;;;;;;5.53;4.93;;;;;;;;;;5056789;28;20811;-83
2021/08/30 12:52:22;;;;;;;5.17;4.70;;;;;;;;;;5056670;28;20436;-82
2021/08/30 12:54:48;;;;;;;7.70;5.43;;;;;;;;;;5056867;28;20447;-83
2021/08/30 12:57:15;;;;;;;7.07;6.37;;;;;;;;;;5043487;28;20455;-82
2021/08/30 12:59:41;;;;;;;7.50;6.00;;;;;;;;;;5046692;28;20462;-82
2021/08/30 13:02:08;;;;;;;7.00;6.30;;;;;;;;;;5044415;28;20439;-83
2021/08/30 13:04:34;;;;;;;7.33;6.30;;;;;;;;;;5045710;28;20431;-81
2021/08/30 13:07:00;;;;;;;7.10;5.37;;;;;;;;;;5045319;28;20450;-82
2021/08/30 13:09:26;;;;;;;6.27;5.33;;;;;;;;;;5054906;28;20472;-83
2021/08/30 13:11:52;;;;;;;5.97;5.47;;;;;;;;;;5046488;28;20525;-82
2021/08/30 13:14:18;;;;;;;6.47;5.87;;;;;;;;;;5056073;28;20456;-82
2021/08/30 13:16:44;;;;;;;6.47;5.87;;;;;;;;;;5051177;28;20432;-83
2021/08/30 13:19:10;;;;;;;6.07;5.50;;;;;;;;;;5045547;28;20529;-83
2021/08/30 13:21:36;;;;;;;5.40;5.00;;;;;;;;;;5054550;28;20437;-83
2021/08/30 13:24:02;;;;;;;6.33;5.83;;;;;;;;;;5044808;28;20920;-83
2021/08/30 13:26:30;;;;;;;6.67;6.07;;;;;;;;;;5040749;28;20424;-83
2021/08/30 13:28:56;;;;;;;6.60;5.80;;;;;;;;;;5047881;28;20485;-83
2021/08/30 13:31:22;;;;;;;6.20;5.70;;;;;;;;;;5053848;28;20440;-83
2021/08/30 13:33:48;;;;;;;6.27;5.63;;;;;;;;;;5046942;28;20571;-83
2021/08/30 13:36:14;;;;;;;5.87;5.37;;;;;;;;;;5045584;28;20422;-82
2021/08/30 13:38:40;;;;;;;7.23;5.20;;;;;;;;;;5049333;28;20414;-83
2021/08/30 13:41:06;;;;;;;4.93;4.43;;;;;;;;;;5049758;28;20454;-82
2021/08/30 13:43:32;;;;;;;8.07;5.30;;;;;;;;;;5048670;28;20532;-82
2021/08/30 13:45:58;;;;;;;6.43;5.80;;;;;;;;;;5059077;28;20444;-82
2021/08/30 13:48:24;;;;;;;5.13;4.60;;;;;;;;;;5044130;28;24078;-82
2021/08/30 13:50:50;;;;;;;5.90;5.33;;;;;;;;;;5061432;28;20426;-82
2021/08/30 13:53:16;;;;;;;6.07;5.07;;;;;;;;;;5054693;28;20431;-83
2021/08/30 13:55:42;;;;;;;5.90;5.17;;;;;;;;;;5053353;28;20442;-82
2021/08/30 13:58:08;;;;;;;5.70;5.20;;;;;;;;;;5048924;28;20537;-83
2021/08/30 14:00:34;;;;;;;5.80;5.30;;;;;;;;;;5043184;28;20439;-83
2021/08/30 14:03:00;;;;;;;6.60;5.10;;;;;;;;;;5049511;28;20983;-83
2021/08/30 14:05:26;;;;;;;6.43;5.93;;;;;;;;;;5047912;28;20427;-83
2021/08/30 14:07:53;;;;;;;5.10;4.67;;;;;;;;;;5048404;28;20444;-82
2021/08/30 14:10:19;;;;;;;5.70;5.20;;;;;;;;;;5048025;28;20516;-84
2021/08/30 14:12:45;;;;;;;7.77;6.30;;;;;;;;;;5058034;28;20443;-83
2021/08/30 14:15:12;;;;;;;7.33;5.87;;;;;;;;;;5047021;28;20418;-81
2021/08/30 14:17:39;;;;;;;6.00;5.50;;;;;;;;;;5049511;28;20966;-82
2021/08/30 14:20:06;;;;;;;7.07;5.80;;;;;;;;;;5052036;28;20494;-81
2021/08/30 14:22:33;;;;;;;7.37;4.77;;;;;;;;;;5054964;28;20450;-83
2021/08/30 14:24:59;;;;;;;5.87;5.23;;;;;;;;;;5048501;28;20432;-81
2021/08/30 14:27:25;;;;;;;5.83;5.27;;;;;;;;;;5042071;28;20443;-83
2021/08/30 14:29:51;;;;;;;6.50;5.83;;;;;;;;;;5049331;28;20461;-81
2021/08/30 14:32:17;;;;;;;7.30;5.33;;;;;;;;;;5048298;28;20462;-82
2021/08/30 14:34:43;;;;;;;6.00;5.40;;;;;;;;;;5046333;28;20447;-82
2021/08/30 14:37:09;;;;;;;7.00;4.83;;;;;;;;;;5044482;28;20570;-83
2021/08/30 14:39:36;;;;;;;8.03;5.40;;;;;;;;;;5059269;28;20532;-83
2021/08/30 14:42:02;;;;;;;7.97;6.23;;;;;;;;;;5046448;28;20451;-82